createdAt,value
2019-05-18T00:00:25.237Z,8.50
2019-05-18T00:02:53.229Z,8.50
2019-05-18T00:05:23.556Z,8.60
2019-05-18T00:07:51.492Z,8.60
2019-05-18T00:10:26.814Z,8.50
2019-05-18T00:12:54.831Z,8.50
2019-05-18T00:15:22.832Z,8.50
2019-05-18T00:17:50.832Z,8.50
2019-05-18T00:20:21.941Z,8.40
2019-05-18T00:22:49.907Z,8.40
2019-05-18T00:25:17.911Z,8.40
2019-05-18T00:27:45.875Z,8.40
2019-05-18T00:30:24.981Z,8.40
2019-05-18T00:32:53.036Z,8.40
2019-05-18T00:35:21.008Z,8.40
2019-05-18T00:37:48.986Z,8.40
2019-05-18T00:40:16.984Z,8.40
2019-05-18T00:42:44.957Z,8.40
2019-05-18T00:45:14.205Z,8.40
2019-05-18T00:47:42.539Z,8.40
2019-05-18T00:50:18.895Z,8.40
2019-05-18T00:52:46.963Z,8.40
2019-05-18T00:55:25.015Z,8.30
2019-05-18T00:57:52.986Z,8.30
2019-05-18T01:00:25.194Z,8.30
2019-05-18T01:03:01.539Z,8.30
2019-05-18T01:05:29.495Z,8.30
2019-05-18T01:07:57.591Z,8.30
2019-05-18T01:10:25.574Z,8.30
2019-05-18T01:12:56.680Z,8.20
2019-05-18T01:15:24.650Z,8.20
2019-05-18T01:17:58.904Z,8.20
2019-05-18T01:20:26.662Z,8.20
2019-05-18T01:22:54.691Z,8.20
2019-05-18T01:25:22.616Z,8.20
2019-05-18T01:27:54.695Z,8.10
2019-05-18T01:30:22.707Z,8.10
2019-05-18T01:32:53.803Z,8.10
2019-05-18T01:35:24.503Z,8.00
2019-05-18T01:37:59.866Z,8.00
2019-05-18T01:40:27.844Z,8.00
2019-05-18T01:43:01.108Z,7.90
2019-05-18T01:45:29.041Z,7.90
2019-05-18T01:48:12.313Z,7.90
2019-05-18T01:50:27.638Z,7.90
2019-05-18T01:52:55.633Z,7.80
2019-05-18T01:55:23.568Z,7.80
2019-05-18T01:57:51.575Z,7.80
2019-05-18T02:00:19.658Z,7.80
2019-05-18T02:02:47.732Z,7.70
2019-05-18T02:05:15.791Z,7.70
2019-05-18T02:07:43.740Z,7.70
2019-05-18T02:10:11.914Z,7.60
2019-05-18T02:12:39.852Z,7.70
2019-05-18T02:15:10.021Z,7.60
2019-05-18T02:17:37.941Z,7.60
2019-05-18T02:20:09.656Z,7.50
2019-05-18T02:22:37.611Z,7.60
2019-05-18T02:25:20.849Z,7.70
2019-05-18T02:31:13.848Z,7.70
2019-05-18T02:33:41.749Z,7.70
2019-05-18T02:36:22.021Z,7.70
2019-05-18T02:38:50.033Z,7.60
2019-05-18T02:41:17.996Z,7.60
2019-05-18T02:44:01.092Z,7.60
2019-05-18T02:46:29.054Z,7.60
2019-05-18T02:49:03.498Z,7.50
2019-05-18T02:51:31.443Z,7.40
2019-05-18T02:54:01.504Z,7.40
2019-05-18T02:56:29.434Z,7.40
2019-05-18T02:58:58.470Z,7.40
2019-05-18T03:01:26.417Z,7.40
2019-05-18T03:04:12.922Z,7.40
2019-05-18T03:06:40.799Z,7.40
2019-05-18T03:09:34.617Z,7.40
2019-05-18T03:12:02.528Z,7.30
2019-05-18T03:14:52.698Z,7.30
2019-05-18T03:17:20.617Z,7.30
2019-05-18T03:19:50.752Z,7.30
2019-05-18T03:22:18.684Z,7.30
2019-05-18T03:24:48.659Z,7.20
2019-05-18T03:27:16.634Z,7.20
2019-05-18T03:29:44.642Z,7.20
2019-05-18T03:32:25.606Z,7.20
2019-05-18T03:34:53.564Z,7.20
2019-05-18T03:37:29.817Z,7.20
2019-05-18T03:43:25.127Z,7.10
2019-05-18T03:49:26.207Z,7.10
2019-05-18T03:51:42.093Z,7.10
2019-05-18T03:54:27.968Z,7.10
2019-05-18T03:56:55.978Z,7.10
2019-05-18T03:59:38.228Z,7.10
2019-05-18T04:02:06.386Z,7.10
2019-05-18T04:05:10.828Z,7.10
2019-05-18T04:07:38.805Z,7.10
2019-05-18T04:10:29.381Z,7.20
2019-05-18T04:12:58.315Z,7.20
2019-05-18T04:15:27.110Z,7.30
2019-05-18T04:18:17.207Z,7.30
2019-05-18T04:20:46.005Z,7.40
2019-05-18T04:23:22.375Z,7.50
2019-05-18T04:25:51.185Z,7.50
2019-05-18T04:28:22.252Z,7.70
2019-05-18T04:30:51.077Z,7.90
2019-05-18T04:33:43.412Z,8.10
2019-05-18T04:36:12.315Z,8.20
2019-05-18T04:38:43.197Z,8.10
2019-05-18T04:41:12.072Z,8.10
2019-05-18T04:43:40.916Z,8.10
2019-05-18T04:46:09.720Z,8.10
2019-05-18T04:49:05.093Z,8.10
2019-05-18T04:51:33.891Z,8.20
2019-05-18T04:54:19.259Z,8.30
2019-05-18T04:56:48.112Z,8.30
2019-05-18T04:59:22.995Z,8.40
2019-05-18T05:01:51.868Z,8.50
2019-05-18T05:04:30.616Z,8.60
2019-05-18T05:06:59.409Z,8.70
2019-05-18T05:09:28.259Z,8.80
2019-05-18T05:12:06.581Z,8.90
2019-05-18T05:14:35.400Z,9.00
2019-05-18T05:17:19.526Z,9.10
2019-05-18T05:19:48.449Z,9.20
2019-05-18T05:22:19.319Z,9.40
2019-05-18T05:24:48.198Z,9.50
2019-05-18T05:27:32.208Z,9.60
2019-05-18T05:30:01.021Z,9.60
2019-05-18T05:35:32.458Z,9.90
2019-05-18T05:38:01.287Z,10.10
2019-05-18T05:40:51.118Z,10.20
2019-05-18T05:43:19.954Z,10.30
2019-05-18T05:45:53.715Z,10.40
2019-05-18T05:48:22.559Z,10.60
2019-05-18T05:50:54.910Z,10.70
2019-05-18T05:53:23.731Z,10.80
2019-05-18T05:56:00.874Z,11.00
2019-05-18T05:58:29.678Z,11.10
2019-05-18T06:01:01.730Z,11.20
2019-05-18T06:03:30.594Z,11.30
2019-05-18T06:06:04.818Z,11.40
2019-05-18T06:08:33.739Z,11.50
2019-05-18T06:11:21.127Z,11.70
2019-05-18T06:13:49.960Z,11.80
2019-05-18T06:16:27.894Z,11.90
2019-05-18T06:18:56.746Z,12.00
2019-05-18T06:21:28.523Z,12.20
2019-05-18T06:23:56.623Z,12.30
2019-05-18T06:26:40.059Z,12.40
2019-05-18T06:29:08.136Z,12.50
2019-05-18T06:31:40.397Z,12.60
2019-05-18T06:34:13.433Z,12.80
2019-05-18T06:36:42.242Z,12.90
2019-05-18T06:42:13.642Z,13.20
2019-05-18T06:44:42.604Z,13.30
2019-05-18T06:47:11.402Z,13.40
2019-05-18T06:49:40.244Z,13.70
2019-05-18T06:52:28.403Z,13.70
2019-05-18T06:55:16.468Z,13.80
2019-05-18T06:57:46.095Z,14.00
2019-05-18T07:00:16.549Z,14.10
2019-05-18T07:02:45.341Z,14.30
2019-05-18T07:05:14.210Z,14.30
2019-05-18T07:07:43.063Z,14.30
2019-05-18T07:10:29.089Z,14.30
2019-05-18T07:12:57.896Z,14.20
2019-05-18T07:15:26.801Z,14.30
2019-05-18T07:17:55.595Z,14.50
2019-05-18T07:20:25.571Z,14.70
2019-05-18T07:23:15.089Z,14.80
2019-05-18T07:25:43.957Z,15.00
2019-05-18T07:28:12.772Z,15.30
2019-05-18T07:30:45.716Z,15.50
2019-05-18T07:33:14.517Z,15.70
2019-05-18T07:35:46.918Z,15.70
2019-05-18T07:38:15.704Z,15.80
2019-05-18T07:40:44.598Z,16.10
2019-05-18T07:43:13.405Z,16.30
2019-05-18T07:45:50.280Z,16.50
2019-05-18T07:48:19.137Z,16.70
2019-05-18T07:50:47.964Z,16.90
2019-05-18T07:53:16.762Z,17.10
2019-05-18T07:55:53.773Z,17.20
2019-05-18T07:58:22.605Z,17.40
2019-05-18T08:00:59.618Z,17.50
2019-05-18T08:03:28.564Z,17.60
2019-05-18T08:05:57.430Z,17.70
2019-05-18T08:08:26.216Z,17.80
2019-05-18T08:10:57.040Z,18.00
2019-05-18T08:13:25.828Z,18.20
2019-05-18T08:15:55.705Z,18.30
2019-05-18T08:18:24.547Z,18.40
2019-05-18T08:21:07.757Z,18.40
2019-05-18T08:23:36.633Z,18.50
2019-05-18T08:26:05.485Z,18.70
2019-05-18T08:28:34.337Z,18.80
2019-05-18T08:31:02.384Z,18.90
2019-05-18T08:33:30.347Z,19.00
2019-05-18T08:35:58.345Z,19.00
2019-05-18T08:38:29.500Z,19.10
2019-05-18T08:40:58.327Z,19.00
2019-05-18T08:43:27.172Z,19.10
2019-05-18T08:45:55.908Z,19.10
2019-05-18T08:48:30.789Z,19.20
2019-05-18T08:50:59.609Z,19.30
2019-05-18T08:53:42.373Z,19.50
2019-05-18T08:56:11.172Z,19.70
2019-05-18T08:58:44.249Z,19.80
2019-05-18T09:01:13.031Z,19.90
2019-05-18T09:03:50.216Z,20.00
2019-05-18T09:06:18.994Z,20.10
2019-05-18T09:08:47.815Z,20.20
2019-05-18T09:11:16.675Z,20.40
2019-05-18T09:13:48.759Z,20.40
2019-05-18T09:16:17.601Z,20.50
2019-05-18T09:19:00.442Z,20.60
2019-05-18T09:21:29.226Z,20.70
2019-05-18T09:23:58.053Z,20.80
2019-05-18T09:26:28.881Z,20.90
2019-05-18T09:28:57.640Z,21.00
2019-05-18T09:31:32.498Z,21.00
2019-05-18T09:34:01.283Z,21.10
2019-05-18T09:36:30.101Z,21.20
2019-05-18T09:38:58.923Z,21.30
2019-05-18T09:41:30.925Z,21.40
2019-05-18T09:43:59.822Z,21.30
2019-05-18T09:46:28.671Z,21.40
2019-05-18T09:48:57.477Z,21.70
2019-05-18T09:51:33.434Z,21.80
2019-05-18T09:54:02.382Z,21.90
2019-05-18T09:56:38.554Z,22.00
2019-05-18T09:59:07.436Z,22.20
2019-05-18T10:01:39.797Z,22.20
2019-05-18T10:04:08.620Z,22.20
2019-05-18T10:06:49.894Z,22.20
2019-05-18T10:09:22.447Z,22.30
2019-05-18T10:11:51.253Z,22.30
2019-05-18T10:14:21.079Z,22.20
2019-05-18T10:16:49.890Z,22.00
2019-05-18T10:19:21.803Z,22.00
2019-05-18T10:21:50.627Z,22.00
2019-05-18T10:24:32.627Z,22.30
2019-05-18T10:27:01.449Z,22.40
2019-05-18T10:29:31.350Z,22.50
2019-05-18T10:32:00.273Z,22.60
2019-05-18T10:34:35.340Z,22.70
2019-05-18T10:37:04.127Z,22.80
2019-05-18T10:39:33.033Z,23.00
2019-05-18T10:42:01.839Z,23.00
2019-05-18T10:44:31.805Z,23.00
2019-05-18T10:47:00.603Z,23.00
2019-05-18T10:49:29.536Z,22.90
2019-05-18T10:51:58.345Z,23.10
2019-05-18T10:54:27.251Z,23.40
2019-05-18T10:56:56.125Z,23.50
2019-05-18T10:59:25.033Z,23.40
2019-05-18T11:01:53.842Z,23.40
2019-05-18T11:04:24.755Z,23.50
2019-05-18T11:06:53.640Z,23.40
2019-05-18T11:09:22.548Z,23.60
2019-05-18T11:11:51.497Z,23.50
2019-05-18T11:14:20.264Z,23.70
2019-05-18T11:16:51.179Z,23.80
2019-05-18T11:19:20.062Z,23.90
2019-05-18T11:21:49.021Z,24.10
2019-05-18T11:24:17.893Z,24.10
2019-05-18T11:26:47.772Z,24.20
2019-05-18T11:29:16.581Z,24.20
2019-05-18T11:31:47.505Z,24.40
2019-05-18T11:34:16.327Z,24.30
2019-05-18T11:36:46.202Z,24.50
2019-05-18T11:39:15.014Z,24.40
2019-05-18T11:41:44.892Z,24.40
2019-05-18T11:44:13.710Z,24.30
2019-05-18T11:46:43.707Z,24.50
2019-05-18T11:49:12.568Z,24.40
2019-05-18T11:51:42.416Z,24.60
2019-05-18T11:54:11.260Z,24.70
2019-05-18T11:56:41.160Z,24.70
2019-05-18T11:59:09.966Z,24.80
2019-05-18T12:01:38.882Z,24.80
2019-05-18T12:04:07.678Z,24.70
2019-05-18T12:06:37.628Z,24.70
2019-05-18T12:09:06.787Z,24.80
2019-05-18T12:11:35.601Z,24.90
2019-05-18T12:14:08.690Z,24.90
2019-05-18T12:16:37.494Z,25.10
2019-05-18T12:19:07.388Z,25.00
2019-05-18T12:21:36.324Z,25.00
2019-05-18T12:24:15.449Z,25.10
2019-05-18T12:26:37.632Z,25.00
2019-05-18T12:29:06.585Z,25.20
2019-05-18T12:31:35.411Z,25.40
2019-05-18T12:34:05.331Z,25.40
2019-05-18T12:36:34.219Z,25.20
2019-05-18T12:39:03.631Z,25.40
2019-05-18T12:41:32.424Z,25.60
2019-05-18T12:44:02.355Z,25.70
2019-05-18T12:46:31.208Z,25.70
2019-05-18T12:49:03.216Z,25.60
2019-05-18T12:51:32.054Z,25.60
2019-05-18T12:54:04.078Z,25.50
2019-05-18T12:56:32.907Z,25.50
2019-05-18T12:59:02.873Z,25.60
2019-05-18T13:01:32.384Z,25.60
2019-05-18T13:04:02.236Z,25.90
2019-05-18T13:06:31.063Z,25.70
2019-05-18T13:08:59.983Z,25.80
2019-05-18T13:11:28.815Z,25.90
2019-05-18T13:14:00.783Z,25.50
2019-05-18T13:16:29.640Z,25.70
2019-05-18T13:18:58.675Z,25.80
2019-05-18T13:21:27.611Z,25.90
2019-05-18T13:23:58.524Z,26.10
2019-05-18T13:26:26.508Z,26.10
2019-05-18T13:28:54.476Z,26.30
2019-05-18T13:31:22.565Z,26.50
2019-05-18T13:33:50.651Z,26.40
2019-05-18T13:36:21.616Z,26.40
2019-05-18T13:38:49.559Z,26.40
2019-05-18T13:41:17.702Z,26.50
2019-05-18T13:43:45.636Z,26.50
2019-05-18T13:46:13.673Z,26.50
2019-05-18T13:48:41.650Z,26.60
2019-05-18T13:51:09.595Z,26.50
2019-05-18T13:53:37.542Z,26.60
2019-05-18T13:56:05.514Z,26.60
2019-05-18T13:58:33.684Z,26.80
2019-05-18T14:01:03.121Z,26.80
2019-05-18T14:03:31.031Z,26.80
2019-05-18T14:06:01.075Z,26.90
2019-05-18T14:08:29.006Z,26.70
2019-05-18T14:10:57.830Z,26.70
2019-05-18T14:13:25.840Z,26.90
2019-05-18T14:15:53.783Z,26.90
2019-05-18T14:18:25.940Z,26.20
2019-05-18T14:20:53.887Z,26.40
2019-05-18T14:23:21.911Z,26.60
2019-05-18T14:25:49.849Z,26.80
2019-05-18T14:28:18.873Z,26.90
2019-05-18T14:30:46.919Z,27.10
2019-05-18T14:33:15.037Z,27.50
2019-05-18T14:35:42.987Z,27.80
2019-05-18T14:38:10.974Z,28.00
2019-05-18T14:40:38.942Z,28.40
2019-05-18T14:43:06.940Z,28.80
2019-05-18T14:45:34.921Z,28.40
2019-05-18T14:48:22.109Z,28.60
2019-05-18T14:50:50.137Z,28.80
2019-05-18T14:53:20.087Z,29.20
2019-05-18T14:55:48.151Z,28.90
2019-05-18T14:58:16.125Z,29.40
2019-05-18T15:00:44.073Z,29.70
2019-05-18T15:03:13.022Z,29.90
2019-05-18T15:05:40.950Z,29.90
2019-05-18T15:08:09.028Z,29.90
2019-05-18T15:10:36.956Z,29.90
2019-05-18T15:13:05.116Z,30.30
2019-05-18T15:15:33.095Z,30.10
2019-05-18T15:18:02.152Z,30.40
2019-05-18T15:20:30.975Z,30.70
2019-05-18T15:23:00.023Z,30.70
2019-05-18T15:25:27.970Z,30.60
2019-05-18T15:27:59.037Z,30.40
2019-05-18T15:30:28.073Z,30.90
2019-05-18T15:32:58.943Z,30.70
2019-05-18T15:35:27.753Z,30.80
2019-05-18T15:37:56.650Z,30.90
2019-05-18T15:40:25.493Z,31.10
2019-05-18T15:42:54.285Z,31.50
2019-05-18T15:45:24.812Z,31.20
2019-05-18T15:48:05.694Z,31.20
2019-05-18T15:50:37.573Z,31.40
2019-05-18T15:53:06.364Z,31.70
2019-05-18T15:55:44.313Z,31.50
2019-05-18T15:58:13.076Z,32.40
2019-05-18T16:00:41.918Z,32.60
2019-05-18T16:03:16.265Z,32.40
2019-05-18T16:05:45.055Z,32.40
2019-05-18T16:08:20.116Z,32.80
2019-05-18T16:10:48.910Z,33.00
2019-05-18T16:13:17.756Z,32.90
2019-05-18T16:15:46.574Z,33.50
2019-05-18T16:18:15.445Z,34.00
2019-05-18T16:20:44.244Z,33.00
2019-05-18T16:23:13.129Z,32.70
2019-05-18T16:25:41.918Z,32.90
2019-05-18T16:28:10.748Z,32.90
2019-05-18T16:30:39.664Z,32.30
2019-05-18T16:33:08.509Z,32.20
2019-05-18T16:35:44.746Z,31.90
2019-05-18T16:38:13.515Z,32.00
2019-05-18T16:40:42.339Z,32.00
2019-05-18T16:43:11.147Z,32.00
2019-05-18T16:45:40.009Z,32.10
2019-05-18T16:48:08.824Z,31.50
2019-05-18T16:50:37.685Z,31.80
2019-05-18T16:53:06.477Z,31.70
2019-05-18T16:55:35.314Z,31.90
2019-05-18T16:58:04.144Z,32.40
2019-05-18T17:00:32.928Z,31.70
2019-05-18T17:03:01.998Z,31.40
2019-05-18T17:05:30.777Z,30.80
2019-05-18T17:08:01.323Z,30.10
2019-05-18T17:10:31.456Z,29.80
2019-05-18T17:13:00.304Z,29.70
2019-05-18T17:15:29.146Z,29.30
2019-05-18T17:17:57.912Z,28.80
2019-05-18T17:20:26.733Z,28.50
2019-05-18T17:22:55.612Z,28.40
2019-05-18T17:25:24.439Z,28.30
2019-05-18T17:27:53.236Z,27.90
2019-05-18T17:30:22.159Z,28.00
2019-05-18T17:32:50.970Z,28.20
2019-05-18T17:35:23.406Z,28.60
2019-05-18T17:37:52.249Z,29.20
2019-05-18T17:40:21.238Z,30.80
2019-05-18T17:42:50.094Z,30.60
2019-05-18T17:45:18.921Z,30.50
2019-05-18T17:47:47.723Z,30.10
2019-05-18T17:50:16.587Z,30.20
2019-05-18T17:52:46.371Z,29.70
2019-05-18T17:55:16.477Z,29.10
2019-05-18T17:57:46.590Z,28.70
2019-05-18T18:00:15.683Z,27.80
2019-05-18T18:02:46.312Z,26.80
2019-05-18T18:05:15.049Z,25.60
2019-05-18T18:07:50.878Z,24.70
2019-05-18T18:10:19.691Z,24.20
2019-05-18T18:12:54.683Z,23.80
2019-05-18T18:15:22.644Z,23.50
2019-05-18T18:17:51.592Z,23.30
2019-05-18T18:20:19.535Z,23.00
2019-05-18T18:23:00.837Z,22.80
2019-05-18T18:25:28.792Z,22.50
2019-05-18T18:27:59.753Z,22.40
2019-05-18T18:30:28.914Z,22.20
2019-05-18T18:32:57.123Z,22.00
2019-05-18T18:35:25.054Z,21.80
2019-05-18T18:37:53.033Z,21.70
2019-05-18T18:40:21.011Z,21.60
2019-05-18T18:43:01.189Z,21.50
2019-05-18T18:45:29.143Z,21.30
2019-05-18T18:47:57.367Z,21.20
2019-05-18T18:50:25.446Z,21.10
2019-05-18T18:52:53.445Z,20.90
2019-05-18T18:55:21.543Z,20.70
2019-05-18T18:57:49.516Z,20.70
2019-05-18T19:00:23.399Z,20.50
2019-05-18T19:02:51.526Z,20.30
2019-05-18T19:05:21.556Z,20.20
2019-05-18T19:07:49.518Z,20.00
2019-05-18T19:10:23.667Z,19.90
2019-05-18T19:12:51.902Z,19.70
2019-05-18T19:15:35.199Z,19.50
2019-05-18T19:18:03.125Z,19.40
2019-05-18T19:20:31.216Z,19.20
2019-05-18T19:22:59.196Z,19.10
2019-05-18T19:25:28.294Z,18.90
2019-05-18T19:27:56.265Z,18.80
2019-05-18T19:30:24.287Z,18.70
2019-05-18T19:32:52.287Z,18.50
2019-05-18T19:35:20.377Z,18.40
2019-05-18T19:37:48.360Z,18.20
2019-05-18T19:40:16.482Z,18.10
2019-05-18T19:42:44.469Z,18.00
2019-05-18T19:45:15.483Z,17.80
2019-05-18T19:47:43.449Z,17.70
2019-05-18T19:50:12.455Z,17.60
2019-05-18T19:52:40.567Z,17.50
2019-05-18T19:55:08.590Z,17.40
2019-05-18T19:57:36.603Z,17.30
2019-05-18T20:00:07.779Z,17.20
2019-05-18T20:02:35.821Z,17.00
2019-05-18T20:05:07.912Z,16.90
2019-05-18T20:07:36.440Z,16.80
2019-05-18T20:10:05.886Z,16.70
2019-05-18T20:12:33.899Z,16.50
2019-05-18T20:15:01.905Z,16.50
2019-05-18T20:17:30.306Z,16.30
2019-05-18T20:19:58.323Z,16.30
2019-05-18T20:22:28.335Z,16.20
2019-05-18T20:24:56.301Z,16.10
2019-05-18T20:27:24.309Z,16.00
2019-05-18T20:29:52.422Z,16.00
2019-05-18T20:32:20.407Z,15.90
2019-05-18T20:34:48.328Z,15.80
2019-05-18T20:37:17.386Z,15.80
2019-05-18T20:39:45.378Z,15.70
2019-05-18T20:42:22.988Z,15.60
2019-05-18T20:44:50.941Z,15.50
2019-05-18T20:47:30.205Z,15.40
2019-05-18T20:49:58.189Z,15.40
2019-05-18T20:52:26.191Z,15.30
2019-05-18T20:54:54.144Z,15.30
2019-05-18T20:57:22.233Z,15.20
2019-05-18T20:59:52.225Z,15.10
2019-05-18T21:02:20.152Z,15.00
2019-05-18T21:04:48.211Z,14.90
2019-05-18T21:07:16.203Z,14.80
2019-05-18T21:09:45.242Z,14.70
2019-05-18T21:12:13.210Z,14.60
2019-05-18T21:14:42.316Z,14.60
2019-05-18T21:17:10.393Z,14.50
2019-05-18T21:19:42.061Z,14.50
2019-05-18T21:22:10.029Z,14.50
2019-05-18T21:24:37.957Z,14.40
2019-05-18T21:27:05.935Z,14.40
2019-05-18T21:29:34.916Z,14.40
2019-05-18T21:32:03.065Z,14.30
2019-05-18T21:34:31.115Z,14.20
2019-05-18T21:36:59.049Z,14.10
2019-05-18T21:39:30.216Z,14.10
2019-05-18T21:41:58.140Z,13.90
2019-05-18T21:44:26.444Z,13.90
2019-05-18T21:46:54.362Z,13.80
2019-05-18T21:49:22.521Z,13.70
2019-05-18T21:51:50.827Z,13.80
2019-05-18T21:54:18.724Z,13.70
2019-05-18T21:56:46.738Z,13.70
2019-05-18T21:59:14.742Z,13.60
2019-05-18T22:01:44.015Z,13.50
2019-05-18T22:04:12.256Z,13.50
2019-05-18T22:07:00.986Z,13.40
2019-05-18T22:09:28.935Z,13.30
2019-05-18T22:11:58.002Z,13.30
2019-05-18T22:14:26.012Z,13.20
2019-05-18T22:16:53.987Z,13.10
2019-05-18T22:19:21.919Z,13.10
2019-05-18T22:21:50.983Z,13.00
2019-05-18T22:24:19.299Z,13.00
2019-05-18T22:26:50.557Z,13.00
2019-05-18T22:29:18.509Z,13.00
2019-05-18T22:34:38.964Z,12.90
2019-05-18T22:37:06.895Z,12.90
2019-05-18T22:39:34.890Z,12.80
2019-05-18T22:42:02.942Z,12.80
2019-05-18T22:44:31.967Z,12.70
2019-05-18T22:46:59.901Z,12.60
2019-05-18T22:49:32.006Z,12.60
2019-05-18T22:51:59.941Z,12.50
2019-05-18T22:54:29.978Z,12.50
2019-05-18T22:56:57.954Z,12.40
2019-05-18T22:59:25.928Z,12.40
2019-05-18T23:01:53.889Z,12.30
2019-05-18T23:04:21.791Z,12.30
2019-05-18T23:06:49.741Z,12.20
2019-05-18T23:09:17.703Z,12.20
2019-05-18T23:11:45.643Z,12.10
2019-05-18T23:14:14.642Z,12.10
2019-05-18T23:16:42.614Z,12.10
2019-05-18T23:19:14.741Z,12.00
2019-05-18T23:21:42.692Z,12.00
2019-05-18T23:24:15.927Z,11.90
2019-05-18T23:26:44.014Z,11.90
2019-05-18T23:29:14.011Z,11.80
2019-05-18T23:31:41.968Z,11.80
2019-05-18T23:34:09.853Z,11.80
2019-05-18T23:36:38.887Z,11.80
2019-05-18T23:39:06.840Z,11.80
2019-05-18T23:41:34.926Z,11.70
2019-05-18T23:44:02.950Z,11.70
2019-05-18T23:46:30.929Z,11.70
2019-05-18T23:49:10.039Z,11.70
2019-05-18T23:51:28.501Z,11.70
2019-05-18T23:53:56.525Z,11.60
2019-05-18T23:56:33.979Z,11.60
2019-05-18T23:59:01.946Z,11.60
